createdAt,value
2016-06-28T14:29:10.134Z,210
2016-06-28T14:30:10.393Z,220
2016-06-28T14:31:10.397Z,210
2016-06-28T14:32:10.245Z,195
2016-06-28T14:34:10.898Z,165
2016-06-28T14:35:11.086Z,150
2016-06-28T14:36:10.283Z,165
2016-06-28T14:37:10.300Z,170
2016-06-28T14:38:24.754Z,115
2016-06-28T14:39:10.550Z,140
2016-06-28T14:40:11.816Z,110
2016-06-28T14:41:26.212Z,170
2016-06-28T14:42:10.997Z,185
2016-06-28T14:43:24.988Z,190
2016-06-28T14:44:11.266Z,185
2016-06-28T14:45:25.040Z,180
2016-06-28T14:46:10.861Z,180
2016-06-28T14:48:10.482Z,190
2016-06-28T14:49:10.521Z,195
2016-06-28T14:50:09.890Z,195
2016-06-28T14:51:11.561Z,195
2016-06-28T14:52:25.993Z,190
2016-06-28T14:53:26.383Z,195
2016-06-28T14:54:25.786Z,190
2016-06-28T14:55:09.955Z,175
2016-06-28T14:56:10.127Z,165
2016-06-28T14:57:25.551Z,165
2016-06-28T14:58:10.997Z,165
2016-06-28T14:59:11.651Z,155
2016-06-28T15:00:24.887Z,160
2016-06-28T15:01:09.586Z,160
2016-06-28T15:02:24.835Z,155
2016-06-28T15:03:25.070Z,155
2016-06-28T15:04:12.108Z,160
2016-06-28T15:05:40.545Z,160
2016-06-28T15:06:11.378Z,160
2016-06-28T15:07:11.555Z,155
2016-06-28T15:08:09.902Z,155
2016-06-28T15:09:11.366Z,160
2016-06-28T15:10:26.038Z,160
2016-06-28T15:11:25.631Z,165
2016-06-28T15:13:25.037Z,155
2016-06-28T15:14:25.910Z,155
2016-06-28T15:16:10.882Z,155
2016-06-28T15:17:10.474Z,155
2016-06-28T15:18:26.156Z,170
2016-06-28T15:19:11.207Z,175
2016-06-28T15:20:12.751Z,175
2016-06-28T15:21:24.933Z,180
2016-06-28T15:22:12.244Z,180
2016-06-28T15:23:24.764Z,185
2016-06-28T15:24:11.190Z,185
2016-06-28T15:25:25.437Z,185
2016-06-28T16:05:45.277Z,125
2016-06-28T16:06:11.204Z,120
2016-06-28T16:07:10.248Z,115
2016-06-28T16:08:10.466Z,115
2016-06-28T16:08:56.075Z,120
2016-06-28T16:10:09.937Z,120
2016-06-28T16:11:10.913Z,125
2016-06-28T16:11:57.682Z,140
2016-06-28T16:13:12.682Z,140
2016-06-28T16:13:57.426Z,155
2016-06-28T16:15:25.957Z,160
2016-06-28T16:16:11.132Z,160
2016-06-28T16:18:55.512Z,145
2016-06-28T16:20:26.410Z,140
2016-06-28T16:21:10.797Z,130
2016-06-28T16:21:55.729Z,125
2016-06-28T16:22:56.643Z,115
2016-06-28T16:23:56.737Z,105
2016-06-28T16:25:10.262Z,110
2016-06-28T16:25:56.628Z,110
2016-06-28T16:27:10.802Z,110
2016-06-28T16:27:57.709Z,110
2016-06-28T16:29:10.387Z,110
2016-06-28T16:31:10.475Z,110
2016-06-28T16:32:10.814Z,110
2016-06-28T16:32:57.023Z,105
2016-06-28T16:33:56.829Z,105
2016-06-28T16:34:57.279Z,105
2016-06-28T16:37:10.967Z,90
2016-06-28T16:37:56.401Z,90
2016-06-28T16:38:57.600Z,85
2016-06-28T16:39:56.857Z,80
2016-06-28T16:40:57.071Z,80
2016-06-28T16:42:11.436Z,80
2016-06-28T16:42:57.406Z,80
2016-06-28T16:43:57.633Z,80
2016-06-28T16:45:25.903Z,85
2016-06-28T16:45:56.415Z,85
2016-06-28T16:46:58.199Z,90
2016-06-28T16:48:11.457Z,85
2016-06-28T16:48:56.417Z,85
2016-06-28T16:49:56.991Z,80
2016-06-28T16:51:10.931Z,85
2016-06-28T16:51:55.825Z,85
2016-06-28T16:52:55.870Z,90
2016-06-28T16:54:10.691Z,80
2016-06-28T16:55:57.682Z,75
2016-06-28T16:57:25.963Z,75
2016-06-28T16:58:12.363Z,80
2016-06-28T17:00:26.882Z,80
2016-06-28T17:01:11.953Z,85
2016-06-28T17:02:12.566Z,80
2016-06-28T17:03:11.276Z,80
2016-06-28T17:03:57.202Z,85
2016-06-28T17:04:58.163Z,85
2016-06-28T17:06:10.858Z,85
2016-06-28T17:07:12.807Z,85
2016-06-28T17:07:57.467Z,85
2016-06-28T17:09:55.664Z,85
2016-06-28T17:10:58.632Z,80
2016-06-28T17:13:21.098Z,90
2016-06-28T17:15:07.547Z,95
2016-06-28T17:16:20.834Z,105
2016-06-28T17:17:06.650Z,110
2016-06-28T17:18:20.623Z,105
2016-06-28T17:19:06.415Z,100
2016-06-28T17:20:06.651Z,95
2016-06-28T17:21:06.670Z,90
2016-06-28T17:22:21.259Z,90
2016-06-28T17:24:06.866Z,95
2016-06-28T17:25:05.887Z,100
2016-06-28T17:26:06.063Z,95
2016-06-28T17:27:06.919Z,85
2016-06-28T17:28:20.583Z,75
2016-06-28T17:30:35.209Z,70
2016-06-28T17:31:06.776Z,70
2016-06-28T17:32:07.826Z,70
2016-06-28T17:33:07.047Z,70
2016-06-28T17:34:07.653Z,70
2016-06-28T17:35:35.690Z,70
2016-06-28T17:36:06.995Z,70
2016-06-28T17:37:06.973Z,65
2016-06-28T17:38:06.616Z,60
2016-06-28T17:39:06.319Z,60
2016-06-28T17:40:19.883Z,55
2016-06-28T17:41:06.394Z,55
2016-06-28T17:42:07.115Z,55
2016-06-28T17:44:07.346Z,50
2016-06-28T17:45:06.730Z,45
2016-06-28T17:47:06.483Z,50
2016-06-28T17:48:21.795Z,50
2016-06-28T17:49:20.951Z,55
2016-06-28T17:50:07.441Z,60
2016-06-28T17:51:35.570Z,65
2016-06-28T17:52:06.648Z,65
2016-06-28T17:53:08.003Z,60
2016-06-28T17:54:22.488Z,50
2016-06-28T17:55:22.246Z,45
2016-06-28T17:56:07.876Z,40
2016-06-28T17:57:06.650Z,35
2016-06-28T17:58:21.710Z,25
2016-06-28T17:59:22.781Z,25
2016-06-28T18:00:07.050Z,20
2016-06-28T18:01:07.905Z,20
2016-06-28T18:02:22.852Z,25
2016-06-28T18:04:22.413Z,25
2016-06-28T18:06:08.661Z,30
2016-06-28T18:07:36.427Z,30
2016-06-28T18:08:21.387Z,25
2016-06-28T18:09:08.291Z,25
2016-06-28T18:10:22.216Z,25
2016-06-28T18:11:06.569Z,20
2016-06-28T18:12:08.012Z,20
2016-06-28T18:13:08.530Z,20
2016-06-28T18:14:21.948Z,20
2016-06-28T18:15:21.573Z,20
2016-06-28T18:16:06.757Z,25
2016-06-28T18:17:21.712Z,30
2016-06-28T18:18:06.976Z,30
2016-06-28T18:19:08.626Z,30
2016-06-28T18:20:08.621Z,30
2016-06-28T18:21:07.096Z,30
2016-06-28T18:22:05.769Z,30
2016-06-28T18:23:21.782Z,35
2016-06-28T18:24:20.677Z,35
2016-06-28T18:25:06.942Z,35
2016-06-28T18:26:06.869Z,35
2016-06-28T18:27:07.583Z,30
2016-06-28T18:28:36.736Z,30
2016-06-28T18:29:07.275Z,30
2016-06-28T18:30:07.888Z,25
2016-06-28T18:31:22.210Z,25
2016-06-28T18:32:22.031Z,20
2016-06-28T18:33:07.813Z,20
2016-06-28T18:34:21.141Z,15
2016-06-28T18:35:21.808Z,15
2016-06-28T18:36:08.160Z,15
2016-06-28T18:37:07.630Z,15
2016-06-28T18:38:06.944Z,10
2016-06-28T18:39:08.051Z,10
2016-06-28T18:40:07.964Z,10
2016-06-28T18:41:22.851Z,10
2016-06-28T18:42:22.050Z,10
2016-06-28T18:43:08.051Z,10
2016-06-28T18:44:23.314Z,5
2016-06-28T18:45:05.880Z,5
2016-06-28T18:46:07.785Z,5
2016-06-28T18:47:23.063Z,10
2016-06-28T18:48:22.839Z,10
2016-06-28T18:49:07.238Z,10
2016-06-28T18:51:07.335Z,10
2016-06-28T18:52:23.372Z,10
2016-06-28T18:53:22.632Z,10
2016-06-28T18:54:08.141Z,10
2016-06-28T18:55:22.397Z,10
2016-06-28T18:57:22.469Z,5
2016-06-28T18:58:22.635Z,5
2016-06-28T18:59:07.812Z,5
2016-06-28T19:00:08.129Z,5
2016-06-28T19:01:09.053Z,5
2016-06-28T19:02:08.179Z,5
2016-06-28T19:03:09.365Z,5
2016-06-28T19:04:07.483Z,5
2016-06-28T19:05:22.078Z,5
2016-06-28T19:06:37.658Z,5
2016-06-28T19:07:07.337Z,5
2016-06-28T19:08:22.481Z,5
2016-06-28T19:09:22.964Z,5
2016-06-28T19:10:21.055Z,5
2016-06-28T19:11:08.145Z,5
2016-06-28T19:12:07.631Z,5
2016-06-28T19:13:22.665Z,5
2016-06-28T19:14:08.255Z,5
2016-06-28T19:15:08.545Z,5
2016-06-28T19:16:22.207Z,5
2016-06-28T19:17:07.665Z,5
2016-06-28T19:18:09.330Z,5
2016-06-28T19:19:08.159Z,5
2016-06-28T19:21:07.594Z,0
2016-06-28T19:22:07.689Z,0
2016-06-28T19:23:36.440Z,0
2016-06-28T19:24:07.707Z,0
2016-06-28T19:25:21.854Z,0
2016-06-28T19:26:07.857Z,0
2016-06-28T19:27:22.537Z,0
2016-06-28T19:28:22.760Z,0
2016-06-28T19:30:07.587Z,0
2016-06-28T19:31:08.430Z,0
2016-06-28T19:32:07.655Z,0
2016-06-28T19:33:09.772Z,0
2016-06-28T19:34:22.168Z,0
2016-06-28T19:35:36.560Z,0
2016-06-28T19:36:08.853Z,0
2016-06-28T19:37:09.905Z,0
2016-06-28T19:38:23.245Z,0
2016-06-28T19:39:36.740Z,0
2016-06-28T19:40:37.761Z,0
2016-06-28T19:41:22.424Z,0
2016-06-28T19:42:09.422Z,0
2016-06-28T19:43:08.386Z,0
2016-06-28T19:44:08.377Z,0
2016-06-28T19:45:21.383Z,0
2016-06-28T19:46:09.379Z,0
2016-06-28T19:47:08.654Z,0
2016-06-28T19:50:09.578Z,0
2016-06-28T19:51:08.963Z,0
2016-06-28T19:52:08.570Z,0
2016-06-28T19:53:07.903Z,0
2016-06-28T19:54:07.874Z,0
2016-06-28T19:55:22.862Z,0
2016-06-28T19:56:08.321Z,0
2016-06-28T19:58:07.606Z,0
2016-06-28T20:00:08.634Z,0
2016-06-28T20:01:08.144Z,0
2016-06-28T20:02:08.062Z,0
2016-06-28T20:03:09.144Z,0
2016-06-28T20:04:09.895Z,0
2016-06-28T20:05:08.088Z,0
2016-06-28T20:06:07.126Z,0
2016-06-28T20:07:07.900Z,0
2016-06-28T20:08:22.914Z,0
2016-06-28T20:09:23.024Z,0
2016-06-28T20:10:08.049Z,0
2016-06-28T20:11:08.758Z,0
2016-06-28T20:12:07.118Z,0
2016-06-28T20:13:08.089Z,0
2016-06-28T20:14:22.710Z,0
2016-06-28T20:15:08.268Z,0
2016-06-28T20:18:08.781Z,0
2016-06-28T20:19:07.910Z,0
2016-06-28T20:20:07.628Z,0
2016-06-28T20:21:08.273Z,0
2016-06-28T20:22:08.901Z,0
2016-06-28T20:23:08.942Z,0
2016-06-28T20:24:07.247Z,0
2016-06-28T20:25:09.561Z,0
2016-06-28T20:26:08.106Z,0
2016-06-28T20:27:07.097Z,0
2016-06-28T20:28:09.782Z,0
2016-06-28T20:29:23.404Z,0
2016-06-28T20:30:08.806Z,0
2016-06-28T20:31:23.388Z,0
2016-06-28T20:32:08.780Z,0
2016-06-28T20:33:08.390Z,0
2016-06-28T20:34:07.936Z,0
2016-06-28T20:35:08.923Z,0
2016-06-28T20:36:08.227Z,0
2016-06-28T20:37:09.251Z,0
2016-06-28T20:38:09.755Z,0
2016-06-28T20:39:08.519Z,0
2016-06-28T20:40:09.687Z,0
2016-06-28T20:41:09.108Z,0
2016-06-28T20:42:23.321Z,0
2016-06-28T20:43:08.571Z,0
2016-06-28T20:44:08.691Z,0
2016-06-28T20:45:09.309Z,0
2016-06-28T20:46:08.539Z,0
2016-06-28T20:47:21.907Z,0
2016-06-28T20:48:08.071Z,0
2016-06-28T20:49:08.157Z,0
2016-06-28T20:50:21.987Z,0
2016-06-28T20:51:22.353Z,0
2016-06-28T20:52:08.587Z,0
2016-06-28T20:53:07.991Z,0
2016-06-28T20:54:09.227Z,0
2016-06-28T20:55:37.224Z,0
2016-06-28T20:58:10.319Z,0
2016-06-28T20:59:24.075Z,0
2016-06-28T21:00:09.705Z,0
2016-06-28T21:01:09.718Z,0
2016-06-28T21:02:08.067Z,0
2016-06-28T21:03:24.134Z,0
2016-06-28T21:04:09.338Z,0
2016-06-28T21:05:08.714Z,0
2016-06-28T21:06:08.543Z,0
2016-06-28T21:07:23.533Z,0
2016-06-28T21:09:23.963Z,0
2016-06-28T21:11:10.027Z,0
2016-06-28T21:12:23.007Z,0
2016-06-28T21:13:09.453Z,0
2016-06-28T21:14:23.418Z,0
2016-06-28T21:16:37.213Z,0
2016-06-28T21:17:09.234Z,0
2016-06-28T21:18:08.642Z,0
2016-06-28T21:19:08.931Z,0
2016-06-28T21:20:08.634Z,0
2016-06-28T21:21:09.893Z,0
2016-06-28T21:22:24.598Z,0
2016-06-28T21:23:23.956Z,0
2016-06-28T21:25:10.039Z,0
2016-06-28T21:26:08.117Z,0
2016-06-28T21:27:09.589Z,0
2016-06-28T21:28:09.527Z,0
2016-06-28T21:29:08.977Z,0
2016-06-28T21:30:24.186Z,0
2016-06-28T21:31:24.627Z,0
2016-06-28T21:33:07.524Z,0
2016-06-28T21:34:08.996Z,0
2016-06-28T21:35:09.001Z,0
2016-06-28T21:36:09.681Z,0
2016-06-28T21:37:37.634Z,0
2016-06-28T21:38:08.629Z,0
2016-06-28T21:39:23.877Z,0
2016-06-28T21:40:23.683Z,0
2016-06-28T21:41:23.851Z,0
2016-06-28T21:42:08.454Z,0
2016-06-28T21:43:37.676Z,0
2016-06-28T21:44:10.529Z,0
2016-06-28T21:45:38.735Z,0
2016-06-28T21:46:07.666Z,0
2016-06-28T21:47:08.289Z,0
2016-06-28T21:48:10.573Z,0
2016-06-28T21:49:10.173Z,0
2016-06-28T21:50:08.293Z,0
2016-06-28T21:51:09.346Z,0
2016-06-28T21:52:24.585Z,0
2016-06-28T21:53:10.203Z,0
2016-06-28T21:55:08.121Z,0
2016-06-28T21:56:09.580Z,0
2016-06-28T21:57:22.569Z,0
2016-06-28T21:58:24.286Z,0
2016-06-28T21:59:23.616Z,0
2016-06-28T22:00:08.368Z,0
2016-06-28T22:01:09.645Z,0
2016-06-28T22:02:09.263Z,0
2016-06-28T22:03:09.665Z,0
2016-06-28T22:04:09.874Z,0
2016-06-28T22:05:09.906Z,0
2016-06-28T22:06:09.457Z,0
2016-06-28T22:07:09.686Z,0
2016-06-28T22:08:10.103Z,0
2016-06-28T22:10:09.721Z,0
2016-06-28T22:11:22.948Z,0
2016-06-28T22:12:09.740Z,0
2016-06-28T22:13:38.360Z,0
2016-06-28T22:14:10.412Z,0
2016-06-28T22:15:09.404Z,0
2016-06-28T22:16:10.434Z,0
2016-06-28T22:17:10.617Z,0
2016-06-28T22:18:24.169Z,0
2016-06-28T22:19:08.545Z,0
2016-06-28T22:20:09.032Z,0
2016-06-28T22:21:24.241Z,0
2016-06-28T22:22:24.047Z,0
2016-06-28T22:23:09.460Z,0
2016-06-28T22:24:23.442Z,0
2016-06-28T22:25:10.300Z,0
2016-06-28T22:26:24.274Z,0
2016-06-28T22:27:23.473Z,0
2016-06-28T22:28:10.086Z,0
2016-06-28T22:29:09.911Z,0
2016-06-28T22:30:09.566Z,0
2016-06-28T22:32:08.673Z,0
2016-06-28T22:33:08.090Z,0
2016-06-28T22:34:09.951Z,0
2016-06-28T22:35:08.266Z,0
2016-06-28T22:36:23.510Z,0
2016-06-28T22:37:09.300Z,0
2016-06-28T22:38:11.813Z,0
2016-06-28T22:40:22.950Z,0
2016-06-28T22:41:38.824Z,0
2016-06-28T22:42:08.963Z,0
2016-06-28T22:43:23.843Z,0
2016-06-28T22:44:08.990Z,0
2016-06-28T22:45:10.047Z,0
2016-06-28T22:46:10.037Z,0
2016-06-28T22:47:11.287Z,0
2016-06-28T22:48:10.047Z,0
2016-06-28T22:49:25.515Z,0
2016-06-28T22:50:24.271Z,0
2016-06-28T22:51:09.869Z,0
2016-06-28T22:52:09.480Z,0
2016-06-28T22:53:11.135Z,0
2016-06-28T22:54:08.895Z,0
2016-06-28T22:55:24.092Z,0
2016-06-28T22:56:10.717Z,0
2016-06-28T22:57:10.338Z,0
2016-06-28T22:58:23.763Z,0
2016-06-28T22:59:39.633Z,0
2016-06-28T23:00:09.954Z,0
2016-06-28T23:01:38.767Z,0
2016-06-28T23:02:23.783Z,0
2016-06-28T23:03:10.617Z,0
2016-06-28T23:04:10.399Z,0
2016-06-28T23:05:10.239Z,0
2016-06-28T23:06:10.621Z,0
2016-06-28T23:07:11.448Z,0
2016-06-28T23:08:11.048Z,0
2016-06-28T23:09:24.850Z,0
2016-06-28T23:10:10.023Z,0
2016-06-28T23:11:25.233Z,0
2016-06-28T23:12:10.462Z,0
2016-06-28T23:13:25.098Z,0
2016-06-28T23:14:09.623Z,0
2016-06-28T23:15:09.442Z,0
2016-06-28T23:16:10.917Z,0
2016-06-28T23:17:11.345Z,0
2016-06-28T23:18:10.706Z,0
2016-06-28T23:19:23.919Z,0
2016-06-28T23:20:09.875Z,0
2016-06-28T23:21:24.750Z,0
2016-06-28T23:22:10.952Z,0
2016-06-28T23:23:10.332Z,0
2016-06-28T23:24:11.442Z,0
2016-06-28T23:25:24.783Z,0
2016-06-28T23:26:10.374Z,0
2016-06-28T23:27:10.559Z,0
2016-06-28T23:28:10.832Z,0
2016-06-28T23:29:09.952Z,0
2016-06-28T23:30:10.006Z,0
2016-06-28T23:31:09.978Z,0
2016-06-28T23:32:10.681Z,0
2016-06-28T23:33:09.990Z,0
2016-06-28T23:34:09.206Z,0
2016-06-28T23:35:10.054Z,0
2016-06-28T23:36:24.452Z,0
2016-06-28T23:37:09.234Z,0
2016-06-28T23:38:38.885Z,0
2016-06-28T23:39:09.639Z,0
2016-06-28T23:40:09.872Z,0
2016-06-28T23:41:09.890Z,0
2016-06-28T23:42:24.488Z,0
2016-06-28T23:43:10.142Z,0
2016-06-28T23:44:25.744Z,0
2016-06-28T23:45:10.335Z,0
2016-06-28T23:46:25.124Z,0
2016-06-28T23:47:38.949Z,0
2016-06-28T23:49:24.944Z,0
2016-06-28T23:50:09.789Z,0
2016-06-28T23:51:10.763Z,0
2016-06-28T23:52:25.373Z,0
2016-06-28T23:53:53.422Z,0
2016-06-28T23:54:24.619Z,0
2016-06-28T23:55:11.026Z,0
2016-06-28T23:56:10.450Z,0
2016-06-28T23:57:10.025Z,0
2016-06-28T23:58:10.026Z,0
2016-06-28T23:59:10.624Z,0
